Time;durP1;ratioP1;P1;durP2;ratioP2;P2;SDS_P1;SDS_P2;PMS_P1;PMS_P2;Temp;Humidity;BMP_temperature;BMP_pressure;BME280_temperature;BME280_humidity;BME280_pressure;Samples;Min_cycle;Max_cycle;Signal;HPM_P1;HPM_P2
2023/07/30 00:01:53;;;;;;;1.80;0.60;;;;;;;18.81;100.00;98109.31;4119242;28;20197;-47
2023/07/30 00:03:55;;;;;;;1.10;0.73;;;;;;;18.82;100.00;98116.50;4116542;28;20634;-47
2023/07/30 00:05:57;;;;;;;1.50;0.70;;;;;;;18.84;100.00;98108.69;4117367;28;20217;-46
2023/07/30 00:07:59;;;;;;;1.77;0.60;;;;;;;18.99;100.00;98111.09;4119455;28;20276;-46
2023/07/30 00:10:00;;;;;;;1.60;1.17;;;;;;;18.96;100.00;98104.22;4124140;28;20239;-46
2023/07/30 00:12:03;;;;;;;2.15;1.00;;;;;;;18.91;100.00;98114.63;4124261;28;20590;-48
2023/07/30 00:14:05;;;;;;;1.05;0.80;;;;;;;18.88;100.00;98115.25;4117482;28;20533;-47
2023/07/30 00:16:08;;;;;;;0.82;0.82;;;;;;;18.91;100.00;98114.63;4117680;28;20276;-47
2023/07/30 00:18:10;;;;;;;1.63;0.60;;;;;;;18.91;100.00;98103.53;4108843;28;20282;-47
2023/07/30 00:20:11;;;;;;;1.00;0.68;;;;;;;19.04;100.00;98111.00;4118240;28;20236;-46
2023/07/30 00:22:13;;;;;;;0.95;0.70;;;;;;;18.95;100.00;98115.63;4108252;28;20215;-48
2023/07/30 00:24:15;;;;;;;1.30;0.90;;;;;;;18.86;100.00;98117.50;4102991;28;20214;-48
2023/07/30 00:26:17;;;;;;;0.70;0.70;;;;;;;18.90;100.00;98124.06;4135058;28;20915;-49
2023/07/30 00:28:18;;;;;;;1.27;0.70;;;;;;;18.93;100.00;98117.91;4118833;28;20218;-48
2023/07/30 00:30:20;;;;;;;2.00;1.00;;;;;;;19.00;100.00;98124.66;4119941;28;20316;-49
2023/07/30 00:32:22;;;;;;;1.10;1.00;;;;;;;18.96;100.00;98125.56;4117515;28;21050;-49
2023/07/30 00:34:23;;;;;;;1.05;0.80;;;;;;;18.97;100.00;98124.47;4118035;28;20229;-47
2023/07/30 00:36:25;;;;;;;2.70;0.90;;;;;;;18.94;100.00;98125.09;4118740;28;20221;-48
2023/07/30 00:38:27;;;;;;;1.88;0.95;;;;;;;18.93;100.00;98117.91;4123933;28;20213;-47
2023/07/30 00:40:29;;;;;;;1.50;0.93;;;;;;;18.90;100.00;98112.97;4118582;28;20241;-47
2023/07/30 00:42:31;;;;;;;1.92;1.23;;;;;;;18.79;100.00;98111.59;4116597;28;20291;-48
2023/07/30 00:44:32;;;;;;;1.40;1.00;;;;;;;18.78;100.00;98110.75;4116471;28;20213;-46
2023/07/30 00:46:34;;;;;;;1.60;0.88;;;;;;;18.68;100.00;98111.00;4103591;28;20219;-46
2023/07/30 00:48:36;;;;;;;1.75;1.08;;;;;;;18.56;100.00;98096.03;4124821;28;20261;-47
2023/07/30 00:50:38;;;;;;;0.95;0.85;;;;;;;18.67;100.00;98091.91;4125479;28;20233;-48
2023/07/30 00:52:40;;;;;;;1.95;1.25;;;;;;;18.66;100.00;98095.81;4125864;28;20210;-46
2023/07/30 00:54:42;;;;;;;1.73;0.80;;;;;;;18.66;100.00;98085.50;4124102;28;20226;-47
2023/07/30 00:56:49;;;;;;;2.28;0.90;;;;;;;18.67;100.00;98091.91;4118242;28;20642;-47
2023/07/30 00:58:52;;;;;;;3.53;0.93;;;;;;;18.75;100.00;98093.91;4123873;28;20209;-47
2023/07/30 01:00:54;;;;;;;2.05;1.20;;;;;;;18.54;100.00;98098.28;4117375;28;20704;-49
2023/07/30 01:02:56;;;;;;;1.05;1.00;;;;;;;18.58;100.00;98099.31;4117992;28;20270;-46
2023/07/30 01:04:59;;;;;;;0.80;0.80;;;;;;;18.57;100.00;98106.00;4125538;28;20202;-49
2023/07/30 01:07:02;;;;;;;0.90;0.90;;;;;;;18.55;100.00;98102.69;4119435;28;20210;-46
2023/07/30 01:09:04;;;;;;;1.15;0.88;;;;;;;18.63;100.00;98107.50;4118620;28;20906;-48
2023/07/30 01:11:06;;;;;;;0.82;0.80;;;;;;;18.60;100.00;98113.69;4122891;28;20257;-48
2023/07/30 01:13:09;;;;;;;1.17;0.82;;;;;;;18.61;100.00;98110.59;4107126;28;21830;-48
2023/07/30 01:15:12;;;;;;;1.17;0.90;;;;;;;18.58;100.00;98115.94;4120944;28;20241;-47
2023/07/30 01:17:14;;;;;;;2.00;0.85;;;;;;;18.67;100.00;98119.63;4120025;28;20209;-45
2023/07/30 01:19:16;;;;;;;1.88;1.02;;;;;;;18.62;100.00;98119.72;4126079;28;20221;-46
2023/07/30 01:21:17;;;;;;;0.85;0.85;;;;;;;18.70;100.00;98125.34;4106374;28;20925;-47
2023/07/30 01:23:19;;;;;;;3.03;1.00;;;;;;;18.74;100.00;98131.94;4124571;28;20268;-46
2023/07/30 01:25:22;;;;;;;1.13;0.88;;;;;;;18.78;100.00;98126.59;4126946;28;21161;-47
2023/07/30 01:27:27;;;;;;;1.35;1.25;;;;;;;18.47;100.00;98131.16;4127278;28;20225;-46
2023/07/30 01:29:38;;;;;;;1.52;1.00;;;;;;;18.58;100.00;98127.03;4119124;28;20207;-47
2023/07/30 01:31:40;;;;;;;1.75;0.93;;;;;;;18.52;100.00;98131.03;4125965;28;20268;-50
2023/07/30 01:33:43;;;;;;;5.43;1.13;;;;;;;18.49;100.00;98134.41;4128051;28;20213;-46
2023/07/30 01:35:45;;;;;;;0.93;0.93;;;;;;;18.48;100.00;98139.16;4126491;28;20288;-47
2023/07/30 01:37:48;;;;;;;1.52;1.10;;;;;;;18.54;100.00;98131.53;4106648;28;20213;-46
2023/07/30 01:39:50;;;;;;;1.45;1.02;;;;;;;18.57;100.00;98136.50;4126812;28;20722;-47
2023/07/30 01:41:54;;;;;;;2.83;0.93;;;;;;;18.64;100.00;98147.97;4121083;28;20226;-48
2023/07/30 01:43:56;;;;;;;0.93;0.90;;;;;;;18.72;100.00;98141.69;4102129;28;20216;-46
2023/07/30 01:45:57;;;;;;;1.52;1.10;;;;;;;18.59;100.00;98148.06;4126514;28;20210;-46
2023/07/30 01:47:59;;;;;;;0.98;0.82;;;;;;;18.67;100.00;98147.34;4136679;28;20650;-46
2023/07/30 01:50:01;;;;;;;1.80;1.00;;;;;;;18.66;100.00;98140.97;4108608;28;20230;-46
2023/07/30 01:52:03;;;;;;;1.60;0.80;;;;;;;18.64;100.00;98153.50;4126690;28;20290;-46
2023/07/30 01:54:05;;;;;;;1.70;1.10;;;;;;;18.58;100.00;98154.75;4126999;28;20214;-46
2023/07/30 01:56:07;;;;;;;1.10;1.00;;;;;;;18.63;100.00;98158.22;4118737;28;20221;-46
2023/07/30 01:58:08;;;;;;;1.88;1.20;;;;;;;18.49;100.00;98145.50;4107114;28;20262;-46
2023/07/30 02:00:11;;;;;;;1.20;1.10;;;;;;;18.14;100.00;98137.91;4121149;28;20230;-46
2023/07/30 02:02:13;;;;;;;1.70;1.00;;;;;;;18.09;100.00;98135.25;4117365;28;20269;-49
2023/07/30 02:04:14;;;;;;;7.60;1.30;;;;;;;18.16;100.00;98142.03;4117881;28;20211;-48
2023/07/30 02:06:16;;;;;;;2.33;0.98;;;;;;;18.22;100.00;98145.50;4127605;28;20213;-46
2023/07/30 02:08:18;;;;;;;1.92;1.38;;;;;;;18.34;100.00;98145.84;4121641;28;20214;-46
2023/07/30 02:10:19;;;;;;;1.45;1.30;;;;;;;18.34;100.00;98145.84;4120057;28;20871;-46
2023/07/30 02:12:21;;;;;;;1.05;0.98;;;;;;;18.42;100.00;98150.66;4125936;28;20671;-46
2023/07/30 02:14:24;;;;;;;1.50;0.98;;;;;;;18.49;100.00;98156.59;4109814;28;20895;-46
2023/07/30 02:16:26;;;;;;;1.40;1.30;;;;;;;18.48;100.00;98155.78;4110840;28;20214;-46
2023/07/30 02:18:27;;;;;;;1.75;1.00;;;;;;;18.48;100.00;98160.50;4118175;28;20215;-47
2023/07/30 02:20:29;;;;;;;3.33;0.90;;;;;;;18.51;100.00;98155.16;4120408;28;20234;-46
2023/07/30 02:22:31;;;;;;;1.95;0.90;;;;;;;18.56;100.00;98154.22;4126675;28;20218;-46
2023/07/30 02:24:33;;;;;;;2.05;1.00;;;;;;;18.44;100.00;98145.66;4110578;28;20211;-45
2023/07/30 02:26:34;;;;;;;6.32;1.20;;;;;;;18.39;100.00;98131.88;4125533;28;20213;-45
2023/07/30 02:28:36;;;;;;;1.30;1.20;;;;;;;18.39;100.00;98135.47;4089081;28;20318;-47
2023/07/30 02:30:38;;;;;;;1.30;1.00;;;;;;;18.38;100.00;98144.91;4120854;28;20240;-46
2023/07/30 02:32:41;;;;;;;1.38;1.13;;;;;;;18.40;100.00;98147.38;4136340;28;20300;-49
2023/07/30 02:34:43;;;;;;;2.20;0.90;;;;;;;18.41;100.00;98149.00;4119375;28;20628;-47
2023/07/30 02:36:45;;;;;;;4.03;1.25;;;;;;;18.43;100.00;98152.28;4118067;28;20688;-47
2023/07/30 02:38:46;;;;;;;2.42;1.13;;;;;;;18.49;100.00;98151.06;4125988;28;20214;-46
2023/07/30 02:40:48;;;;;;;1.50;1.10;;;;;;;18.53;100.00;98152.09;4121043;28;20221;-49
2023/07/30 02:42:50;;;;;;;1.20;0.85;;;;;;;18.48;100.00;98160.50;4112360;28;20214;-47
2023/07/30 02:44:51;;;;;;;1.60;1.10;;;;;;;18.57;100.00;98164.19;4134070;28;20239;-47
2023/07/30 02:46:53;;;;;;;0.90;0.90;;;;;;;18.43;100.00;98163.38;4120180;28;20210;-47
2023/07/30 02:48:55;;;;;;;1.38;0.90;;;;;;;18.39;100.00;98157.63;4127228;28;21129;-46
2023/07/30 02:50:57;;;;;;;1.67;1.13;;;;;;;18.45;100.00;98166.69;4125602;28;20233;-48
2023/07/30 02:52:58;;;;;;;1.48;1.33;;;;;;;18.39;100.00;98162.38;4117092;28;20214;-48
2023/07/30 02:55:00;;;;;;;1.63;1.10;;;;;;;18.32;100.00;98168.31;4089405;28;21975;-46
2023/07/30 02:57:02;;;;;;;1.30;1.10;;;;;;;18.38;100.00;98169.84;4126643;28;20214;-45
2023/07/30 02:59:04;;;;;;;1.30;0.88;;;;;;;18.38;100.00;98160.72;4126554;28;20221;-46
2023/07/30 03:01:07;;;;;;;1.10;1.00;;;;;;;18.33;100.00;98163.59;4126040;28;20229;-45
2023/07/30 03:03:09;;;;;;;1.20;1.10;;;;;;;18.42;100.00;98161.72;4119308;28;20211;-48
2023/07/30 03:05:11;;;;;;;2.13;1.45;;;;;;;18.39;100.00;98165.13;4126228;28;20210;-48
2023/07/30 03:07:13;;;;;;;1.30;1.13;;;;;;;18.43;100.00;98168.91;4108783;28;20270;-49
2023/07/30 03:09:15;;;;;;;5.03;1.63;;;;;;;18.43;100.00;98163.38;4126013;28;20209;-46
2023/07/30 03:11:16;;;;;;;1.02;1.00;;;;;;;18.38;100.00;98169.03;4119209;28;20240;-46
2023/07/30 03:13:18;;;;;;;1.30;1.20;;;;;;;18.31;100.00;98163.09;4121081;28;20217;-46
2023/07/30 03:15:20;;;;;;;1.38;1.10;;;;;;;18.37;100.00;98164.59;4124011;28;20237;-48
2023/07/30 03:17:22;;;;;;;0.90;0.90;;;;;;;18.31;100.00;98165.88;4119271;28;20253;-48
2023/07/30 03:19:23;;;;;;;1.88;1.10;;;;;;;18.31;100.00;98172.22;4121364;28;20241;-47
2023/07/30 03:21:25;;;;;;;2.38;1.15;;;;;;;18.37;100.00;98162.66;4120248;28;20321;-46
2023/07/30 03:23:27;;;;;;;3.25;1.20;;;;;;;18.31;100.00;98157.56;4116845;28;20228;-46
2023/07/30 03:25:29;;;;;;;2.10;1.38;;;;;;;18.19;100.00;98166.31;4126009;28;20210;-47
2023/07/30 03:27:31;;;;;;;1.45;1.13;;;;;;;18.12;100.00;98168.69;4102532;28;20218;-46
2023/07/30 03:29:32;;;;;;;4.43;1.88;;;;;;;18.25;100.00;98170.63;4121355;28;20217;-47
2023/07/30 03:31:34;;;;;;;2.05;1.35;;;;;;;18.27;100.00;98162.84;4100419;28;20254;-48
2023/07/30 03:33:39;;;;;;;1.80;1.20;;;;;;;18.27;100.00;98165.63;4121415;28;20321;-46
2023/07/30 03:35:40;;;;;;;2.00;1.30;;;;;;;18.32;100.00;98167.50;4116409;28;20231;-47
2023/07/30 03:37:42;;;;;;;1.50;1.40;;;;;;;18.35;100.00;98180.72;4125347;28;20297;-51
2023/07/30 03:39:44;;;;;;;1.17;1.08;;;;;;;18.35;100.00;98173.25;4119236;28;20219;-50
2023/07/30 03:41:46;;;;;;;2.45;0.98;;;;;;;18.40;100.00;98175.09;4117559;28;20664;-48
2023/07/30 03:43:48;;;;;;;2.13;1.30;;;;;;;18.38;100.00;98169.03;4104045;28;20222;-49
2023/07/30 03:45:50;;;;;;;2.70;1.10;;;;;;;18.38;100.00;98174.59;4133814;28;20237;-48
2023/07/30 03:47:52;;;;;;;3.65;1.30;;;;;;;18.37;100.00;98179.28;4116073;28;20285;-48
2023/07/30 03:49:53;;;;;;;2.75;1.98;;;;;;;18.39;100.00;98165.94;4102958;28;20297;-49
2023/07/30 03:51:55;;;;;;;5.30;1.40;;;;;;;18.44;100.00;98165.03;4117495;28;20213;-48
2023/07/30 03:53:57;;;;;;;2.65;1.30;;;;;;;18.43;100.00;98174.44;4119048;28;20210;-47
2023/07/30 03:55:59;;;;;;;1.35;1.25;;;;;;;18.38;100.00;98169.03;4119756;28;20233;-46
2023/07/30 03:58:00;;;;;;;2.10;1.30;;;;;;;18.43;100.00;98175.28;4123183;28;20265;-46
2023/07/30 04:00:04;;;;;;;3.13;1.38;;;;;;;18.45;100.00;98177.75;4126260;28;20559;-46
2023/07/30 04:02:06;;;;;;;3.22;1.67;;;;;;;18.44;100.00;98176.13;4133412;28;20307;-47
2023/07/30 04:04:07;;;;;;;1.55;1.42;;;;;;;18.22;100.00;98179.56;4119344;28;20218;-46
2023/07/30 04:06:09;;;;;;;1.63;1.38;;;;;;;18.11;100.00;98174.53;4120685;28;20214;-47
2023/07/30 04:08:11;;;;;;;1.52;1.15;;;;;;;18.10;100.00;98170.09;4115873;28;20210;-46
2023/07/30 04:10:12;;;;;;;2.22;1.42;;;;;;;18.09;100.00;98162.94;4134165;28;20228;-46
2023/07/30 04:12:14;;;;;;;1.80;1.30;;;;;;;18.00;100.00;98167.56;4133841;28;20679;-46
2023/07/30 04:14:16;;;;;;;1.52;1.35;;;;;;;18.05;100.00;98159.16;4123023;28;20272;-46
2023/07/30 04:16:17;;;;;;;2.88;1.10;;;;;;;18.07;100.00;98163.25;4124971;28;20275;-45
2023/07/30 04:18:19;;;;;;;1.63;1.40;;;;;;;18.07;100.00;98173.50;4117208;28;20623;-46
2023/07/30 04:20:21;;;;;;;2.35;1.30;;;;;;;18.10;100.00;98175.66;4121814;28;20226;-45
2023/07/30 04:22:23;;;;;;;1.88;1.38;;;;;;;18.13;100.00;98181.41;4118970;28;20218;-46
2023/07/30 04:24:26;;;;;;;2.03;1.42;;;;;;;18.13;100.00;98170.31;4121651;28;20213;-47
2023/07/30 04:26:28;;;;;;;3.47;1.80;;;;;;;18.19;100.00;98176.59;4121277;28;20260;-46
2023/07/30 04:28:29;;;;;;;9.40;1.70;;;;;;;18.31;100.00;98171.41;4120340;28;20586;-46
2023/07/30 04:30:32;;;;;;;3.83;1.23;;;;;;;18.28;100.00;98169.19;4116330;28;20230;-47
2023/07/30 04:32:34;;;;;;;2.63;1.90;;;;;;;18.06;100.00;98163.56;4119484;28;20906;-45
2023/07/30 04:34:36;;;;;;;1.75;1.40;;;;;;;18.01;100.00;98163.66;4133790;28;20216;-47
2023/07/30 04:36:38;;;;;;;3.55;2.00;;;;;;;18.11;100.00;98166.25;4125629;28;20284;-46
2023/07/30 04:38:40;;;;;;;3.90;1.98;;;;;;;18.12;100.00;98167.88;4121483;28;20205;-48
2023/07/30 04:40:41;;;;;;;1.92;1.33;;;;;;;18.15;100.00;98156.16;4104033;28;20278;-45
2023/07/30 04:42:43;;;;;;;2.13;1.75;;;;;;;18.16;100.00;98163.34;4122103;28;20228;-46
2023/07/30 04:44:45;;;;;;;2.05;1.70;;;;;;;18.25;100.00;98169.84;4133736;28;20261;-46
2023/07/30 04:46:47;;;;;;;4.47;1.83;;;;;;;18.27;100.00;98175.88;4127762;28;20194;-46
2023/07/30 04:48:48;;;;;;;3.50;2.17;;;;;;;18.23;100.00;98174.84;4118696;28;20215;-46
2023/07/30 04:50:50;;;;;;;1.90;1.75;;;;;;;18.32;100.00;98175.81;4124135;28;20723;-48
2023/07/30 04:52:52;;;;;;;1.92;1.70;;;;;;;18.41;100.00;98173.94;4123521;28;20206;-48
2023/07/30 04:54:53;;;;;;;2.38;1.73;;;;;;;18.29;100.00;98173.59;4135734;28;20659;-46
2023/07/30 04:56:55;;;;;;;2.00;1.90;;;;;;;18.28;100.00;98171.97;4109456;28;20238;-45
2023/07/30 04:58:57;;;;;;;3.47;1.88;;;;;;;18.18;100.00;98178.53;4106377;28;20712;-47
2023/07/30 05:00:59;;;;;;;2.45;2.22;;;;;;;18.19;100.00;98176.59;4122049;28;20230;-49
2023/07/30 05:03:00;;;;;;;2.20;2.08;;;;;;;18.14;100.00;98174.75;4121256;28;20214;-47
2023/07/30 05:05:03;;;;;;;2.17;1.98;;;;;;;18.19;100.00;98177.41;4119101;28;20268;-45
2023/07/30 05:07:05;;;;;;;2.47;2.28;;;;;;;18.21;100.00;98183.47;4120533;28;20206;-46
2023/07/30 05:09:06;;;;;;;2.40;2.05;;;;;;;18.21;100.00;98171.56;4122076;28;20214;-46
2023/07/30 05:11:08;;;;;;;2.33;2.05;;;;;;;18.24;100.00;98176.50;4128432;28;20230;-46
2023/07/30 05:13:10;;;;;;;2.67;2.38;;;;;;;18.22;100.00;98179.56;4123903;28;20253;-48
2023/07/30 05:15:11;;;;;;;4.40;1.95;;;;;;;18.24;100.00;98182.03;4135664;28;20237;-46
2023/07/30 05:17:13;;;;;;;1.83;1.73;;;;;;;18.15;100.00;98187.47;4129124;28;20216;-46
2023/07/30 05:19:16;;;;;;;2.25;2.10;;;;;;;18.28;100.00;98183.06;4121853;28;20206;-47
2023/07/30 05:21:18;;;;;;;2.47;2.28;;;;;;;18.34;100.00;98188.22;4120233;28;20321;-48
2023/07/30 05:23:20;;;;;;;3.38;2.58;;;;;;;18.29;100.00;98181.91;4134527;28;20213;-46
2023/07/30 05:25:22;;;;;;;2.63;2.42;;;;;;;18.41;100.00;98187.81;4119888;28;20644;-46
2023/07/30 05:27:24;;;;;;;2.13;1.92;;;;;;;18.32;100.00;98178.59;4120136;28;20222;-47
2023/07/30 05:29:26;;;;;;;2.50;2.15;;;;;;;18.41;100.00;98187.81;4122758;28;20215;-47
2023/07/30 05:31:27;;;;;;;3.33;2.30;;;;;;;18.48;100.00;98182.66;4122427;28;20682;-47
2023/07/30 05:33:29;;;;;;;2.42;2.00;;;;;;;18.48;100.00;98183.50;4121216;28;20223;-46
2023/07/30 05:35:31;;;;;;;4.18;2.65;;;;;;;18.57;100.00;98180.84;4119221;28;20210;-47
2023/07/30 05:37:33;;;;;;;3.33;2.03;;;;;;;18.47;100.00;98172.72;4105874;28;20215;-48
2023/07/30 05:39:35;;;;;;;2.00;1.90;;;;;;;18.47;100.00;98175.50;4121390;28;20297;-46
2023/07/30 05:41:37;;;;;;;2.28;2.05;;;;;;;18.55;100.00;98172.00;4119344;28;20248;-47
2023/07/30 05:43:39;;;;;;;4.03;2.90;;;;;;;18.60;100.00;98177.44;4125850;28;20225;-46
2023/07/30 05:45:41;;;;;;;4.28;2.50;;;;;;;18.59;100.00;98186.88;4122615;28;20619;-46
2023/07/30 05:47:42;;;;;;;2.17;2.08;;;;;;;18.76;100.00;98184.28;4126123;28;20218;-49
2023/07/30 05:49:44;;;;;;;2.67;2.40;;;;;;;18.74;100.00;98189.31;4124874;28;20610;-47
2023/07/30 05:51:46;;;;;;;2.90;2.53;;;;;;;18.78;100.00;98182.03;4120369;28;20329;-47
2023/07/30 05:53:48;;;;;;;2.55;2.35;;;;;;;18.76;100.00;98184.28;4122107;28;21038;-47
2023/07/30 05:55:50;;;;;;;2.72;2.53;;;;;;;18.70;100.00;98185.50;4123400;28;20227;-47
2023/07/30 05:57:53;;;;;;;2.30;2.20;;;;;;;18.75;100.00;98182.63;4125940;28;20762;-46
2023/07/30 05:59:55;;;;;;;4.53;2.22;;;;;;;18.68;100.00;98185.00;4121037;28;20301;-47
2023/07/30 06:01:59;;;;;;;2.53;2.33;;;;;;;18.68;100.00;98185.00;4119257;28;20214;-51
2023/07/30 06:04:00;;;;;;;2.78;2.63;;;;;;;18.74;100.00;98181.00;4117148;28;20210;-46
2023/07/30 06:06:02;;;;;;;4.22;2.97;;;;;;;18.75;100.00;98199.28;4120103;28;20202;-46
2023/07/30 06:08:04;;;;;;;2.92;2.70;;;;;;;18.72;100.00;98191.59;4118465;28;20303;-47
2023/07/30 06:10:07;;;;;;;3.05;2.85;;;;;;;18.73;100.00;98190.44;4103692;28;20226;-46
2023/07/30 06:12:09;;;;;;;4.60;2.80;;;;;;;18.85;100.00;98196.28;4104963;28;20261;-46
2023/07/30 06:14:11;;;;;;;7.13;2.10;;;;;;;18.91;100.00;98193.09;4120429;28;20790;-46
2023/07/30 06:16:13;;;;;;;2.67;2.58;;;;;;;18.87;100.00;98194.84;4126334;28;20217;-47
2023/07/30 06:18:15;;;;;;;3.20;3.00;;;;;;;18.88;100.00;98209.53;4137065;28;20222;-47
2023/07/30 06:20:17;;;;;;;3.00;2.78;;;;;;;18.80;100.00;98201.94;4120506;28;20233;-46
2023/07/30 06:22:20;;;;;;;3.22;2.80;;;;;;;18.88;100.00;98203.97;4126465;28;20677;-47
2023/07/30 06:24:21;;;;;;;3.55;2.58;;;;;;;18.96;100.00;98211.56;4104978;28;20238;-46
2023/07/30 06:26:23;;;;;;;3.03;2.58;;;;;;;19.22;100.00;98219.03;4125840;28;20573;-47
2023/07/30 06:28:25;;;;;;;2.63;2.42;;;;;;;19.28;100.00;98214.19;4122214;28;20206;-47
2023/07/30 06:30:27;;;;;;;3.15;2.95;;;;;;;19.37;100.00;98226.19;4126082;28;20251;-46
2023/07/30 06:32:29;;;;;;;2.75;2.35;;;;;;;19.39;100.00;98227.50;4117046;28;20205;-49
2023/07/30 06:34:31;;;;;;;8.68;1.80;;;;;;;19.39;100.00;98223.91;4125641;28;20256;-48
2023/07/30 06:36:33;;;;;;;3.17;2.00;;;;;;;19.38;100.00;98219.50;4121046;28;20235;-46
2023/07/30 06:38:34;;;;;;;2.03;1.90;;;;;;;19.42;100.00;98232.44;4104846;28;20250;-47
2023/07/30 06:40:39;;;;;;;1.75;1.65;;;;;;;19.39;100.00;98226.69;4120230;28;20222;-48
2023/07/30 06:42:41;;;;;;;2.50;1.98;;;;;;;19.42;100.00;98226.03;4125397;28;20210;-47
2023/07/30 06:44:42;;;;;;;2.22;1.95;;;;;;;19.27;100.00;98220.88;4118066;28;20210;-46
2023/07/30 06:46:44;;;;;;;3.08;2.35;;;;;;;19.20;100.00;98239.91;4122928;28;20626;-46
2023/07/30 06:48:46;;;;;;;2.17;1.60;;;;;;;19.23;100.00;98233.72;4105965;28;20638;-48
2023/07/30 06:50:47;;;;;;;1.60;1.50;;;;;;;19.36;100.00;98227.28;4123329;28;20222;-49
2023/07/30 06:52:49;;;;;;;1.67;1.58;;;;;;;19.51;100.00;98240.84;4117406;28;20242;-47
2023/07/30 06:54:51;;;;;;;2.67;1.60;;;;;;;19.52;100.00;98231.38;4125498;28;20278;-47
2023/07/30 06:56:53;;;;;;;2.20;1.60;;;;;;;19.59;100.00;98231.75;4125512;28;20654;-46
2023/07/30 06:58:55;;;;;;;1.65;1.48;;;;;;;19.71;100.00;98245.91;4116170;28;20213;-47
2023/07/30 07:00:57;;;;;;;2.33;1.85;;;;;;;19.78;100.00;98240.72;4118268;28;20328;-50
2023/07/30 07:02:58;;;;;;;2.03;1.27;;;;;;;19.56;100.00;98237.91;4118646;28;20211;-46
2023/07/30 07:05:00;;;;;;;2.08;1.63;;;;;;;19.59;100.00;98248.41;4124983;28;20581;-48
2023/07/30 07:07:03;;;;;;;1.88;1.63;;;;;;;19.40;100.00;98242.19;4120445;28;20282;-48
2023/07/30 07:09:05;;;;;;;1.63;1.52;;;;;;;19.53;100.00;98238.56;4119150;28;20699;-47
2023/07/30 07:11:07;;;;;;;4.50;1.33;;;;;;;19.48;100.00;98242.28;4124606;28;20268;-46
2023/07/30 07:13:10;;;;;;;1.77;1.50;;;;;;;19.44;100.00;98232.94;4117326;28;20213;-49
2023/07/30 07:15:14;;;;;;;2.20;1.23;;;;;;;19.46;100.00;98235.41;4117580;28;20246;-47
2023/07/30 07:17:16;;;;;;;10.13;1.40;;;;;;;19.57;100.00;98242.34;4117048;28;20238;-46
2023/07/30 07:19:18;;;;;;;1.65;1.17;;;;;;;19.59;100.00;98254.75;4118835;28;20264;-46
2023/07/30 07:21:20;;;;;;;2.08;1.50;;;;;;;19.45;100.00;98253.19;4125904;28;20770;-46
2023/07/30 07:23:22;;;;;;;9.18;1.20;;;;;;;19.53;100.00;98255.22;4107557;28;20210;-47
2023/07/30 07:25:24;;;;;;;2.08;1.48;;;;;;;19.56;100.00;98251.78;4117567;28;20211;-46
2023/07/30 07:27:26;;;;;;;2.53;1.35;;;;;;;19.67;100.00;98253.19;4136127;28;20205;-47
2023/07/30 07:29:30;;;;;;;2.50;1.70;;;;;;;19.67;100.00;98255.97;4124905;28;20214;-47
2023/07/30 07:31:32;;;;;;;1.67;1.58;;;;;;;19.74;100.00;98245.25;4118151;28;20241;-46
2023/07/30 07:33:37;;;;;;;1.60;1.50;;;;;;;19.65;100.00;98252.72;4120824;28;20301;-47
2023/07/30 07:35:40;;;;;;;3.53;1.40;;;;;;;19.61;100.00;98252.50;4119307;28;20214;-46
2023/07/30 07:37:41;;;;;;;1.92;1.35;;;;;;;19.58;100.00;98250.34;4125776;28;20234;-49
2023/07/30 07:39:43;;;;;;;2.17;1.35;;;;;;;19.42;100.00;98259.34;4115803;28;20207;-48
2023/07/30 07:41:45;;;;;;;3.28;1.10;;;;;;;19.53;100.00;98258.00;4118769;28;20205;-46
2023/07/30 07:43:47;;;;;;;1.63;1.13;;;;;;;19.51;100.00;98258.28;4119819;28;20205;-47
2023/07/30 07:45:49;;;;;;;2.83;1.23;;;;;;;19.48;100.00;98260.88;4122561;28;20743;-46
2023/07/30 07:47:51;;;;;;;1.67;1.13;;;;;;;19.53;100.00;98258.81;4123941;28;20202;-47
2023/07/30 07:49:52;;;;;;;1.58;1.42;;;;;;;19.82;100.00;98252.81;4122254;28;20210;-46
2023/07/30 07:51:54;;;;;;;3.35;1.58;;;;;;;20.03;100.00;98259.50;4120422;28;20631;-47
2023/07/30 07:53:56;;;;;;;2.00;1.48;;;;;;;20.02;100.00;98258.69;4117345;28;20436;-49
2023/07/30 07:55:57;;;;;;;2.42;1.65;;;;;;;20.41;100.00;98266.28;4121114;28;20210;-46
2023/07/30 07:57:59;;;;;;;1.75;1.45;;;;;;;20.56;100.00;98268.66;4121032;28;20608;-46
2023/07/30 08:00:01;;;;;;;1.88;1.40;;;;;;;20.27;100.00;98262.78;4124521;28;20241;-46
2023/07/30 08:02:03;;;;;;;1.63;1.52;;;;;;;20.09;100.00;98269.38;4124882;28;20260;-48
2023/07/30 08:04:05;;;;;;;1.25;1.10;;;;;;;19.95;100.00;98260.25;4119718;28;20202;-47
2023/07/30 08:06:07;;;;;;;2.42;1.60;;;;;;;19.91;100.00;98265.63;4117878;28;20293;-47
2023/07/30 08:08:08;;;;;;;1.65;1.20;;;;;;;19.86;100.00;98265.75;4119847;28;20248;-49
2023/07/30 08:10:11;;;;;;;1.98;1.60;;;;;;;20.27;100.00;98269.19;4136720;28;20287;-48
2023/07/30 08:12:14;;;;;;;1.92;1.40;;;;;;;20.37;100.00;98266.13;4124986;28;20214;-47
2023/07/30 08:14:15;;;;;;;7.00;1.13;;;;;;;20.49;100.00;98269.13;4124868;28;20209;-48
2023/07/30 08:16:17;;;;;;;1.75;1.55;;;;;;;20.33;100.00;98275.41;4135910;28;20274;-49
2023/07/30 08:18:19;;;;;;;1.10;1.00;;;;;;;20.23;100.00;98270.09;4124415;28;20213;-46
2023/07/30 08:20:21;;;;;;;4.82;1.40;;;;;;;20.52;100.00;98273.22;4120245;28;20308;-48
2023/07/30 08:22:22;;;;;;;1.13;1.02;;;;;;;20.93;100.00;98284.88;4117152;28;20210;-46
2023/07/30 08:24:24;;;;;;;1.40;1.30;;;;;;;21.47;100.00;98273.19;4125275;28;20210;-46
2023/07/30 08:26:26;;;;;;;3.17;1.00;;;;;;;21.37;94.12;98268.75;4104848;28;20893;-47
2023/07/30 08:28:28;;;;;;;2.30;1.02;;;;;;;21.67;95.41;98276.19;4119939;28;20264;-48
2023/07/30 08:30:30;;;;;;;1.90;1.30;;;;;;;21.93;93.12;98292.91;4124754;28;20811;-48
2023/07/30 08:32:33;;;;;;;3.53;1.10;;;;;;;21.41;90.98;98286.47;4113969;28;20206;-48
2023/07/30 08:34:35;;;;;;;2.15;0.80;;;;;;;21.16;92.13;98278.03;4116906;28;20228;-46
2023/07/30 08:36:36;;;;;;;1.42;1.10;;;;;;;20.99;94.50;98297.50;4124913;28;20225;-48
2023/07/30 08:38:41;;;;;;;1.30;1.00;;;;;;;20.68;94.80;98299.47;4120370;28;20612;-47
2023/07/30 08:40:43;;;;;;;1.60;0.93;;;;;;;20.35;95.14;98298.16;4134528;28;20288;-47
2023/07/30 08:42:45;;;;;;;1.10;1.00;;;;;;;20.00;97.27;98299.03;4119295;28;20205;-46
2023/07/30 08:44:47;;;;;;;0.90;0.90;;;;;;;20.16;99.37;98316.97;4124451;28;20202;-46
2023/07/30 08:46:49;;;;;;;0.82;0.82;;;;;;;20.00;97.32;98310.97;4124637;28;20804;-46
2023/07/30 08:48:50;;;;;;;2.95;0.77;;;;;;;20.05;95.01;98316.41;4125854;28;20273;-45
2023/07/30 08:50:56;;;;;;;1.00;0.70;;;;;;;20.12;94.12;98319.56;4119760;28;20225;-46
2023/07/30 08:52:59;;;;;;;1.00;0.80;;;;;;;20.23;94.71;98325.69;4117175;28;20276;-47
2023/07/30 08:55:02;;;;;;;1.13;0.70;;;;;;;20.14;92.79;98319.28;4114588;28;20273;-48
2023/07/30 08:57:04;;;;;;;0.60;0.60;;;;;;;19.95;94.62;98326.94;4115352;28;20943;-46
2023/07/30 08:59:06;;;;;;;0.77;0.77;;;;;;;19.96;95.56;98331.34;4125765;28;20205;-46
2023/07/30 09:01:12;;;;;;;0.80;0.80;;;;;;;20.20;95.13;98334.69;4104619;28;20234;-46
2023/07/30 09:03:15;;;;;;;0.85;0.70;;;;;;;20.83;93.03;98318.50;4108522;28;20207;-46
2023/07/30 09:05:19;;;;;;;0.95;0.80;;;;;;;21.50;92.70;98331.03;4132872;28;20829;-48
2023/07/30 09:07:21;;;;;;;0.63;0.60;;;;;;;21.84;87.48;98331.09;4132684;28;20659;-47
2023/07/30 09:09:22;;;;;;;1.02;0.70;;;;;;;22.11;86.39;98333.56;4105969;28;20218;-46
2023/07/30 09:11:27;;;;;;;1.02;0.55;;;;;;;21.63;85.47;98338.44;4124098;28;20260;-48
2023/07/30 09:13:29;;;;;;;3.05;0.70;;;;;;;22.15;87.47;98340.09;4102058;28;20202;-46
2023/07/30 09:15:37;;;;;;;1.48;0.50;;;;;;;22.18;85.66;98342.25;4117757;28;20692;-46
2023/07/30 09:17:39;;;;;;;1.17;0.70;;;;;;;21.86;84.11;98346.34;4124626;28;20244;-48
2023/07/30 09:19:41;;;;;;;0.75;0.70;;;;;;;21.79;87.15;98353.53;4114555;28;20210;-46
2023/07/30 09:21:43;;;;;;;0.57;0.55;;;;;;;21.61;86.16;98351.84;4117835;28;20206;-46
2023/07/30 09:23:46;;;;;;;1.35;0.50;;;;;;;21.31;84.17;98356.38;4117637;28;20544;-47
2023/07/30 09:25:49;;;;;;;0.50;0.50;;;;;;;21.16;86.55;98359.59;4121230;28;20217;-46
2023/07/30 09:27:51;;;;;;;0.52;0.45;;;;;;;21.23;84.10;98361.94;4123975;28;20213;-46
2023/07/30 09:29:56;;;;;;;0.63;0.63;;;;;;;21.27;85.95;98357.34;4133345;28;20212;-47